createdAt,value
2019-02-08T00:00:56.771Z,8.87
2019-02-08T00:02:01.047Z,9.53
2019-02-08T00:03:06.590Z,9.27
2019-02-08T00:04:11.010Z,11.33
2019-02-08T00:05:15.525Z,8.93
2019-02-08T00:06:19.859Z,4.97
2019-02-08T00:07:24.136Z,11.67
2019-02-08T00:08:28.557Z,12.00
2019-02-08T00:09:33.073Z,11.73
2019-02-08T00:10:37.438Z,9.70
2019-02-08T00:11:41.813Z,10.40
2019-02-08T00:12:46.402Z,11.07
2019-02-08T00:13:51.218Z,9.63
2019-02-08T00:14:55.541Z,9.10
2019-02-08T00:15:59.789Z,7.73
2019-02-08T00:17:04.129Z,7.00
2019-02-08T00:18:08.494Z,6.90
2019-02-08T00:19:12.821Z,10.27
2019-02-08T00:20:17.253Z,7.63
2019-02-08T00:21:21.693Z,11.00
2019-02-08T00:22:25.966Z,10.20
2019-02-08T00:23:30.222Z,7.80
2019-02-08T00:24:34.646Z,8.70
2019-02-08T00:25:38.998Z,11.70
2019-02-08T00:26:43.350Z,9.97
2019-02-08T00:27:47.768Z,8.80
2019-02-08T00:28:52.382Z,12.73
2019-02-08T00:29:56.715Z,10.50
2019-02-08T00:31:01.235Z,10.60
2019-02-08T00:32:05.566Z,12.50
2019-02-08T00:33:09.986Z,10.63
2019-02-08T00:34:14.241Z,12.13
2019-02-08T00:35:18.589Z,10.70
2019-02-08T00:36:22.867Z,13.63
2019-02-08T00:37:27.127Z,11.03
2019-02-08T00:38:31.402Z,11.73
2019-02-08T00:39:35.750Z,11.10
2019-02-08T00:40:40.159Z,9.40
2019-02-08T00:41:44.487Z,10.07
2019-02-08T00:42:48.842Z,10.10
2019-02-08T00:43:53.502Z,9.77
2019-02-08T00:44:58.163Z,9.70
2019-02-08T00:46:02.495Z,10.60
2019-02-08T00:47:06.817Z,7.57
2019-02-08T00:48:11.231Z,9.73
2019-02-08T00:49:15.522Z,10.70
2019-02-08T00:50:21.142Z,13.63
2019-02-08T00:51:25.389Z,8.40
2019-02-08T00:52:29.661Z,8.97
2019-02-08T00:53:33.924Z,7.23
2019-02-08T00:54:38.181Z,8.53
2019-02-08T00:55:42.480Z,8.40
2019-02-08T00:56:46.859Z,12.07
2019-02-08T00:57:51.262Z,9.60
2019-02-08T00:58:55.805Z,8.60
2019-02-08T01:00:00.448Z,9.60
2019-02-08T01:01:05.187Z,11.63
2019-02-08T01:02:09.450Z,10.37
2019-02-08T01:03:13.857Z,8.57
2019-02-08T01:04:18.122Z,12.77
2019-02-08T01:05:22.916Z,7.70
2019-02-08T01:06:27.174Z,10.90
2019-02-08T01:07:31.434Z,11.13
2019-02-08T01:08:35.717Z,10.47
2019-02-08T01:09:39.964Z,9.23
2019-02-08T01:10:44.366Z,11.70
2019-02-08T01:11:48.633Z,11.37
2019-02-08T01:12:53.042Z,13.23
2019-02-08T01:13:57.490Z,10.87
2019-02-08T01:15:02.189Z,14.43
2019-02-08T01:16:06.614Z,10.93
2019-02-08T01:17:10.926Z,10.70
2019-02-08T01:18:15.322Z,10.33
2019-02-08T01:19:19.663Z,10.67
2019-02-08T01:20:24.335Z,10.13
2019-02-08T01:21:28.597Z,13.27
2019-02-08T01:22:32.934Z,12.70
2019-02-08T01:23:41.164Z,13.53
2019-02-08T01:24:43.322Z,9.73
2019-02-08T01:25:47.721Z,14.93
2019-02-08T01:26:51.983Z,12.67
2019-02-08T01:27:56.307Z,11.27
2019-02-08T01:29:00.682Z,12.20
2019-02-08T01:30:08.150Z,17.13
2019-02-08T01:31:12.486Z,13.07
2019-02-08T01:32:16.763Z,13.23
2019-02-08T01:33:21.050Z,12.63
2019-02-08T01:34:25.374Z,14.10
2019-02-08T01:35:29.793Z,13.10
2019-02-08T01:36:34.057Z,13.10
2019-02-08T01:37:38.321Z,10.93
2019-02-08T01:38:42.590Z,18.07
2019-02-08T01:39:46.866Z,11.50
2019-02-08T01:40:51.266Z,14.83
2019-02-08T01:41:55.607Z,15.07
2019-02-08T01:43:00.115Z,15.50
2019-02-08T01:44:04.822Z,17.33
2019-02-08T01:45:10.129Z,16.13
2019-02-08T01:46:14.394Z,16.03
2019-02-08T01:47:18.678Z,16.27
2019-02-08T01:48:22.930Z,13.13
2019-02-08T01:49:27.278Z,17.13
2019-02-08T01:50:31.723Z,11.80
2019-02-08T01:51:36.058Z,15.87
2019-02-08T01:52:40.334Z,13.10
2019-02-08T01:53:48.727Z,15.00
2019-02-08T01:54:50.630Z,19.40
2019-02-08T01:55:54.890Z,17.57
2019-02-08T01:56:59.147Z,16.10
2019-02-08T01:58:03.765Z,17.60
2019-02-08T01:59:08.182Z,17.30
2019-02-08T02:00:35.997Z,15.37
2019-02-08T02:01:40.417Z,15.90
2019-02-08T02:02:44.927Z,15.20
2019-02-08T02:03:49.190Z,12.77
2019-02-08T02:04:53.549Z,14.83
2019-02-08T02:05:57.886Z,18.80
2019-02-08T02:07:02.142Z,13.70
2019-02-08T02:08:06.613Z,12.53
2019-02-08T02:09:11.093Z,15.63
2019-02-08T02:10:37.280Z,14.63
2019-02-08T02:11:41.541Z,16.07
2019-02-08T02:12:45.828Z,17.13
2019-02-08T02:13:50.082Z,15.57
2019-02-08T02:14:54.423Z,17.17
2019-02-08T02:15:58.762Z,16.17
2019-02-08T02:17:03.035Z,17.97
2019-02-08T02:18:07.698Z,14.20
2019-02-08T02:19:11.975Z,14.33
2019-02-08T02:20:17.000Z,19.40
2019-02-08T02:21:21.255Z,11.30
2019-02-08T02:22:25.662Z,19.57
2019-02-08T02:23:29.930Z,16.87
2019-02-08T02:24:34.261Z,21.87
2019-02-08T02:25:38.606Z,16.57
2019-02-08T02:26:42.867Z,20.33
2019-02-08T02:27:47.202Z,16.00
2019-02-08T02:28:51.459Z,14.73
2019-02-08T02:29:55.718Z,17.70
2019-02-08T02:30:59.992Z,14.30
2019-02-08T02:32:04.440Z,13.57
2019-02-08T02:33:10.186Z,14.97
2019-02-08T02:34:14.518Z,15.97
2019-02-08T02:35:18.934Z,20.50
2019-02-08T02:36:23.202Z,21.47
2019-02-08T02:37:27.466Z,15.43
2019-02-08T02:38:31.719Z,15.47
2019-02-08T02:39:35.984Z,17.60
2019-02-08T02:40:40.347Z,19.57
2019-02-08T02:41:44.683Z,15.53
2019-02-08T02:42:49.299Z,22.57
2019-02-08T02:43:53.555Z,19.10
2019-02-08T02:44:57.824Z,21.73
2019-02-08T02:46:02.106Z,14.87
2019-02-08T02:47:06.375Z,17.27
2019-02-08T02:48:12.579Z,16.37
2019-02-08T02:49:16.854Z,18.50
2019-02-08T02:50:21.490Z,20.17
2019-02-08T02:51:25.843Z,17.97
2019-02-08T02:52:30.165Z,16.60
2019-02-08T02:53:34.427Z,15.87
2019-02-08T02:54:38.692Z,18.20
2019-02-08T02:55:42.967Z,15.57
2019-02-08T02:56:53.346Z,20.83
2019-02-08T02:57:57.849Z,17.73
2019-02-08T02:59:02.258Z,18.17
2019-02-08T03:00:12.354Z,20.60
2019-02-08T03:01:16.641Z,22.63
2019-02-08T03:02:20.910Z,22.47
2019-02-08T03:03:25.318Z,21.50
2019-02-08T03:04:29.581Z,18.90
2019-02-08T03:05:34.013Z,19.43
2019-02-08T03:06:38.345Z,21.00
2019-02-08T03:07:42.778Z,16.73
2019-02-08T03:08:47.039Z,23.27
2019-02-08T03:09:51.305Z,19.13
2019-02-08T03:10:55.577Z,17.97
2019-02-08T03:11:59.838Z,20.17
2019-02-08T03:13:04.380Z,19.23
2019-02-08T03:14:08.789Z,26.43
2019-02-08T03:15:14.992Z,21.60
2019-02-08T03:16:19.346Z,19.17
2019-02-08T03:17:23.689Z,20.23
2019-02-08T03:18:27.973Z,18.93
2019-02-08T03:19:32.230Z,21.87
2019-02-08T03:20:36.582Z,22.83
2019-02-08T03:21:40.860Z,21.23
2019-02-08T03:22:45.396Z,24.03
2019-02-08T03:23:49.730Z,21.80
2019-02-08T03:24:54.069Z,24.03
2019-02-08T03:25:58.403Z,23.43
2019-02-08T03:27:02.687Z,22.53
2019-02-08T03:28:07.009Z,22.10
2019-02-08T03:29:11.287Z,23.03
2019-02-08T03:30:18.810Z,25.00
2019-02-08T03:31:23.170Z,23.53
2019-02-08T03:32:27.591Z,19.23
2019-02-08T03:33:31.851Z,27.13
2019-02-08T03:34:36.197Z,21.73
2019-02-08T03:35:40.621Z,23.67
2019-02-08T03:36:44.893Z,18.83
2019-02-08T03:37:49.946Z,21.67
2019-02-08T03:38:54.291Z,21.23
2019-02-08T03:39:58.564Z,21.87
2019-02-08T03:41:02.838Z,19.93
2019-02-08T03:42:07.175Z,24.33
2019-02-08T03:43:11.898Z,24.27
2019-02-08T03:44:16.238Z,23.00
2019-02-08T03:45:20.718Z,22.97
2019-02-08T03:46:25.006Z,20.47
2019-02-08T03:47:29.361Z,20.97
2019-02-08T03:48:33.635Z,26.37
2019-02-08T03:49:37.898Z,24.00
2019-02-08T03:50:42.418Z,21.00
2019-02-08T03:51:46.702Z,19.13
2019-02-08T03:52:51.137Z,19.30
2019-02-08T03:53:55.462Z,19.83
2019-02-08T03:54:59.797Z,22.00
2019-02-08T03:56:04.318Z,24.23
2019-02-08T03:57:08.590Z,23.63
2019-02-08T03:58:12.943Z,21.97
2019-02-08T03:59:17.205Z,23.93
2019-02-08T04:00:28.106Z,19.73
2019-02-08T04:01:32.377Z,22.60
2019-02-08T04:02:36.885Z,19.17
2019-02-08T04:03:42.486Z,19.20
2019-02-08T04:04:46.825Z,23.03
2019-02-08T04:05:51.242Z,23.03
2019-02-08T04:06:55.603Z,23.30
2019-02-08T04:08:00.038Z,24.20
2019-02-08T04:09:07.285Z,17.63
2019-02-08T04:10:13.401Z,19.77
2019-02-08T04:11:17.734Z,19.27
2019-02-08T04:12:22.107Z,23.33
2019-02-08T04:13:26.378Z,22.30
2019-02-08T04:14:30.648Z,22.80
2019-02-08T04:15:34.998Z,24.53
2019-02-08T04:16:39.270Z,26.20
2019-02-08T04:17:43.797Z,22.83
2019-02-08T04:18:48.061Z,21.83
2019-02-08T04:19:52.334Z,20.93
2019-02-08T04:20:56.622Z,23.03
2019-02-08T04:22:00.898Z,23.10
2019-02-08T04:23:05.314Z,22.47
2019-02-08T04:24:09.685Z,23.07
2019-02-08T04:25:15.593Z,25.00
2019-02-08T04:26:19.853Z,22.63
2019-02-08T04:27:24.117Z,24.27
2019-02-08T04:28:28.385Z,26.83
2019-02-08T04:29:33.355Z,22.07
2019-02-08T04:30:37.718Z,26.97
2019-02-08T04:31:42.498Z,20.03
2019-02-08T04:32:46.918Z,24.57
2019-02-08T04:33:51.205Z,19.40
2019-02-08T04:34:55.622Z,21.17
2019-02-08T04:35:59.893Z,22.33
2019-02-08T04:37:04.235Z,23.60
2019-02-08T04:38:08.543Z,18.90
2019-02-08T04:39:12.948Z,23.50
2019-02-08T04:40:18.584Z,21.20
2019-02-08T04:41:22.913Z,23.37
2019-02-08T04:42:27.185Z,17.77
2019-02-08T04:43:31.478Z,22.30
2019-02-08T04:44:35.733Z,23.73
2019-02-08T04:45:39.997Z,23.90
2019-02-08T04:46:44.271Z,19.83
2019-02-08T04:47:48.606Z,23.27
2019-02-08T04:48:52.891Z,22.33
2019-02-08T04:49:57.155Z,24.67
2019-02-08T04:51:01.429Z,25.87
2019-02-08T04:52:05.763Z,26.57
2019-02-08T04:53:10.035Z,20.80
2019-02-08T04:54:14.381Z,26.33
2019-02-08T04:55:18.846Z,23.73
2019-02-08T04:56:23.197Z,23.17
2019-02-08T04:57:27.488Z,21.67
2019-02-08T04:58:35.569Z,19.13
2019-02-08T04:59:37.710Z,20.53
2019-02-08T05:00:41.965Z,17.70
2019-02-08T05:01:46.249Z,22.77
2019-02-08T05:02:50.590Z,20.03
2019-02-08T05:03:54.865Z,23.07
2019-02-08T05:04:59.143Z,17.33
2019-02-08T05:06:03.662Z,19.10
2019-02-08T05:07:07.995Z,22.47
2019-02-08T05:08:12.333Z,18.40
2019-02-08T05:09:16.739Z,20.30
2019-02-08T05:10:23.060Z,19.93
2019-02-08T05:11:27.313Z,18.13
2019-02-08T05:12:31.585Z,17.57
2019-02-08T05:13:36.099Z,19.13
2019-02-08T05:14:40.405Z,19.87
2019-02-08T05:15:44.753Z,24.07
2019-02-08T05:16:49.022Z,21.27
2019-02-08T05:17:53.506Z,20.70
2019-02-08T05:18:57.785Z,18.77
2019-02-08T05:20:02.065Z,20.73
2019-02-08T05:21:06.327Z,21.60
2019-02-08T05:22:10.618Z,19.43
2019-02-08T05:23:14.951Z,18.70
2019-02-08T05:24:19.221Z,20.43
2019-02-08T05:25:23.743Z,22.10
2019-02-08T05:26:28.078Z,25.77
2019-02-08T05:27:32.411Z,23.17
2019-02-08T05:28:36.759Z,20.07
2019-02-08T05:29:41.033Z,22.33
2019-02-08T05:30:45.374Z,25.40
2019-02-08T05:31:49.648Z,26.93
2019-02-08T05:32:54.006Z,17.07
2019-02-08T05:33:58.257Z,20.93
2019-02-08T05:35:02.623Z,18.17
2019-02-08T05:36:06.987Z,17.83
2019-02-08T05:37:11.313Z,21.57
2019-02-08T05:38:15.653Z,27.30
2019-02-08T05:39:19.993Z,19.80
2019-02-08T05:40:24.482Z,20.83
2019-02-08T05:41:28.745Z,21.93
2019-02-08T05:42:33.002Z,22.60
2019-02-08T05:43:37.262Z,19.73
2019-02-08T05:44:41.621Z,21.07
2019-02-08T05:45:45.877Z,20.37
2019-02-08T05:46:50.149Z,17.53
2019-02-08T05:47:54.558Z,17.10
2019-02-08T05:48:58.821Z,16.37
2019-02-08T05:50:03.095Z,13.70
2019-02-08T05:51:07.349Z,18.23
2019-02-08T05:52:11.614Z,14.53
2019-02-08T05:53:15.950Z,19.93
2019-02-08T05:54:20.322Z,15.10
2019-02-08T05:55:26.273Z,19.33
2019-02-08T05:56:30.529Z,15.53
2019-02-08T05:57:34.799Z,18.73
2019-02-08T05:58:39.065Z,17.93
2019-02-08T05:59:43.402Z,15.03
2019-02-08T06:00:50.395Z,16.40
2019-02-08T06:01:54.657Z,16.30
2019-02-08T06:02:58.942Z,17.97
2019-02-08T06:04:03.250Z,18.37
2019-02-08T06:05:08.930Z,16.70
2019-02-08T06:06:13.273Z,15.57
2019-02-08T06:07:17.543Z,17.10
2019-02-08T06:08:21.822Z,15.63
2019-02-08T06:09:26.095Z,19.40
2019-02-08T06:10:30.371Z,18.83
2019-02-08T06:11:34.624Z,20.93
2019-02-08T06:12:38.954Z,17.40
2019-02-08T06:13:43.415Z,17.63
2019-02-08T06:14:47.677Z,21.43
2019-02-08T06:15:51.946Z,16.43
2019-02-08T06:16:56.232Z,23.03
2019-02-08T06:18:00.575Z,17.73
2019-02-08T06:19:05.409Z,19.20
2019-02-08T06:20:11.152Z,18.80
2019-02-08T06:21:15.510Z,15.70
2019-02-08T06:22:19.766Z,20.27
2019-02-08T06:23:24.030Z,19.77
2019-02-08T06:24:28.302Z,16.13
2019-02-08T06:25:32.566Z,19.53
2019-02-08T06:26:36.844Z,13.93
2019-02-08T06:27:41.878Z,15.40
2019-02-08T06:28:46.157Z,17.73
2019-02-08T06:29:50.417Z,19.60
2019-02-08T06:30:54.759Z,18.40
2019-02-08T06:31:59.051Z,16.70
2019-02-08T06:33:04.568Z,17.27
2019-02-08T06:34:08.834Z,14.10
2019-02-08T06:35:14.721Z,15.77
2019-02-08T06:36:18.990Z,18.57
2019-02-08T06:37:23.273Z,15.73
2019-02-08T06:38:27.531Z,15.67
2019-02-08T06:39:31.865Z,16.20
2019-02-08T06:40:38.414Z,17.63
2019-02-08T06:41:42.751Z,16.43
2019-02-08T06:42:47.032Z,21.27
2019-02-08T06:43:51.362Z,15.13
2019-02-08T06:44:55.640Z,16.70
2019-02-08T06:45:59.982Z,15.53
2019-02-08T06:47:04.341Z,18.90
2019-02-08T06:48:09.858Z,17.73
2019-02-08T06:49:14.285Z,18.03
2019-02-08T06:50:19.949Z,17.77
2019-02-08T06:51:24.221Z,16.40
2019-02-08T06:52:28.561Z,18.53
2019-02-08T06:53:32.819Z,25.63
2019-02-08T06:54:37.105Z,18.97
2019-02-08T06:55:41.434Z,21.27
2019-02-08T06:56:57.894Z,43.83
2019-02-08T06:58:25.506Z,35.23
2019-02-08T06:59:33.989Z,37.13
2019-02-08T07:01:03.288Z,26.30
2019-02-08T07:02:29.898Z,20.50
2019-02-08T07:03:42.190Z,37.80
2019-02-08T07:05:05.414Z,19.80
2019-02-08T07:06:14.825Z,17.00
2019-02-08T07:07:38.207Z,21.40
2019-02-08T07:08:57.391Z,24.37
2019-02-08T07:10:19.548Z,19.47
2019-02-08T07:11:34.737Z,18.87
2019-02-08T07:12:56.790Z,19.17
2019-02-08T07:14:11.131Z,16.97
2019-02-08T07:15:37.366Z,15.47
2019-02-08T07:16:51.479Z,19.10
2019-02-08T07:18:02.225Z,15.17
2019-02-08T07:19:19.160Z,15.40
2019-02-08T07:20:39.024Z,12.07
2019-02-08T07:22:03.925Z,15.90
2019-02-08T07:23:27.365Z,14.63
2019-02-08T07:24:36.873Z,13.50
2019-02-08T07:25:58.867Z,17.67
2019-02-08T07:27:20.862Z,11.27
2019-02-08T07:28:47.310Z,13.53
2019-02-08T07:30:01.690Z,15.13
2019-02-08T07:31:23.948Z,15.27
2019-02-08T07:32:44.271Z,17.53
2019-02-08T07:34:06.150Z,14.20
2019-02-08T07:35:19.598Z,14.27
2019-02-08T07:36:40.086Z,15.03
2019-02-08T07:37:55.002Z,17.07
2019-02-08T07:39:06.866Z,11.63
2019-02-08T07:40:37.233Z,11.20
2019-02-08T07:41:53.741Z,15.03
2019-02-08T07:43:19.041Z,12.07
2019-02-08T07:44:38.314Z,14.03
2019-02-08T07:46:18.175Z,11.17
2019-02-08T07:47:34.650Z,12.97
2019-02-08T07:48:46.614Z,12.20
2019-02-08T07:49:57.790Z,14.87
2019-02-08T07:51:27.429Z,13.93
2019-02-08T07:53:02.825Z,12.57
2019-02-08T07:54:28.456Z,11.00
2019-02-08T07:55:50.580Z,13.27
2019-02-08T07:57:04.198Z,16.03
2019-02-08T07:58:14.126Z,17.73
2019-02-08T07:59:46.542Z,11.90
2019-02-08T08:01:08.935Z,12.43
2019-02-08T08:02:30.991Z,15.57
2019-02-08T08:04:01.251Z,14.07
2019-02-08T08:05:27.626Z,12.93
2019-02-08T08:06:47.919Z,17.37
2019-02-08T08:08:19.886Z,15.33
2019-02-08T08:09:46.365Z,17.20
2019-02-08T08:10:59.381Z,17.53
2019-02-08T08:12:21.658Z,13.53
2019-02-08T08:13:54.245Z,17.03
2019-02-08T08:15:10.416Z,13.67
2019-02-08T08:16:32.386Z,15.00
2019-02-08T08:17:59.021Z,14.70
2019-02-08T08:19:21.029Z,18.23
2019-02-08T08:20:43.580Z,14.33
2019-02-08T08:22:00.907Z,15.80
2019-02-08T08:23:30.891Z,16.63
2019-02-08T08:24:43.909Z,14.37
2019-02-08T08:26:09.243Z,16.97
2019-02-08T08:27:35.098Z,17.07
2019-02-08T08:29:01.365Z,21.20
2019-02-08T08:30:30.362Z,17.17
2019-02-08T08:31:56.647Z,13.90
2019-02-08T08:33:14.678Z,12.43
2019-02-08T08:34:33.754Z,14.07
2019-02-08T08:36:06.886Z,21.13
2019-02-08T08:37:41.974Z,24.83
2019-02-08T08:39:14.695Z,14.33
2019-02-08T08:40:56.018Z,16.00
2019-02-08T08:42:19.598Z,15.80
2019-02-08T08:44:05.579Z,21.03
2019-02-08T08:45:49.786Z,15.77
2019-02-08T08:48:21.314Z,18.07
2019-02-08T08:49:38.022Z,16.27
2019-02-08T08:50:54.733Z,17.27
2019-02-08T08:52:11.250Z,22.13
2019-02-08T08:53:27.838Z,22.20
2019-02-08T08:54:44.314Z,15.73
2019-02-08T08:56:00.935Z,18.63
2019-02-08T08:57:17.143Z,19.23
2019-02-08T08:58:33.115Z,19.23
2019-02-08T08:59:49.777Z,20.10
2019-02-08T09:01:06.165Z,14.57
2019-02-08T09:02:22.878Z,19.53
2019-02-08T09:03:38.764Z,14.33
2019-02-08T09:04:55.171Z,16.13
2019-02-08T09:06:11.178Z,21.27
2019-02-08T09:07:27.942Z,16.90
2019-02-08T09:08:44.483Z,21.53
2019-02-08T09:10:01.013Z,19.00
2019-02-08T09:11:17.730Z,19.43
2019-02-08T09:12:33.610Z,16.13
2019-02-08T09:13:49.530Z,18.43
2019-02-08T09:15:06.070Z,18.20
2019-02-08T09:16:22.585Z,18.37
2019-02-08T09:17:39.229Z,21.93
2019-02-08T09:18:55.874Z,18.97
2019-02-08T09:20:12.570Z,14.47
2019-02-08T09:21:29.174Z,22.00
2019-02-08T09:22:45.753Z,18.40
2019-02-08T09:24:02.427Z,14.57
2019-02-08T09:25:19.035Z,21.53
2019-02-08T09:26:35.617Z,16.23
2019-02-08T09:27:52.246Z,25.33
2019-02-08T09:29:09.048Z,20.50
2019-02-08T09:30:25.541Z,17.97
2019-02-08T09:34:01.544Z,18.90
2019-02-08T09:35:44.358Z,22.00
2019-02-08T09:37:21.399Z,17.87
2019-02-08T09:39:05.709Z,19.33
2019-02-08T09:40:48.446Z,17.90
2019-02-08T09:42:31.202Z,20.70
2019-02-08T09:44:13.935Z,18.63
2019-02-08T09:50:09.265Z,16.47
2019-02-08T09:51:52.037Z,17.57
2019-02-08T09:53:34.797Z,16.17
2019-02-08T09:55:17.534Z,16.83
2019-02-08T09:57:00.267Z,19.13
2019-02-08T09:58:43.019Z,18.03
2019-02-08T10:00:25.745Z,20.80
2019-02-08T10:02:08.474Z,17.73
2019-02-08T10:03:51.214Z,19.57
2019-02-08T10:05:33.950Z,19.80
2019-02-08T10:07:16.685Z,17.87
2019-02-08T10:08:59.414Z,18.67
2019-02-08T10:10:42.154Z,14.83
2019-02-08T10:14:38.938Z,19.27
2019-02-08T10:16:21.663Z,17.23
2019-02-08T10:18:04.454Z,16.57
2019-02-08T10:19:47.206Z,16.57
2019-02-08T10:21:03.647Z,18.90
2019-02-08T10:22:20.327Z,16.70
2019-02-08T10:23:37.052Z,16.33
2019-02-08T10:24:52.991Z,19.87
2019-02-08T10:26:08.790Z,15.07
2019-02-08T10:27:25.462Z,19.40
2019-02-08T10:28:41.368Z,17.87
2019-02-08T10:29:57.291Z,20.27
2019-02-08T10:31:13.415Z,19.37
2019-02-08T10:32:30.043Z,21.37
2019-02-08T10:33:46.234Z,23.87
2019-02-08T10:35:02.441Z,17.77
2019-02-08T10:36:18.503Z,24.07
2019-02-08T10:37:34.771Z,32.53
2019-02-08T10:38:50.930Z,27.63
2019-02-08T10:40:07.602Z,22.10
2019-02-08T10:41:30.240Z,19.73
2019-02-08T10:42:42.147Z,16.40
2019-02-08T10:43:58.406Z,17.90
2019-02-08T10:45:14.953Z,19.67
2019-02-08T10:46:31.226Z,18.93
2019-02-08T10:47:47.878Z,19.77
2019-02-08T10:49:04.450Z,16.37
2019-02-08T10:50:21.168Z,21.23
2019-02-08T10:51:37.357Z,16.20
2019-02-08T10:52:53.935Z,21.03
2019-02-08T10:54:10.731Z,19.57
2019-02-08T10:55:26.642Z,14.57
2019-02-08T10:56:43.187Z,17.90
2019-02-08T10:58:00.198Z,18.17
2019-02-08T10:59:16.162Z,17.30
2019-02-08T11:00:32.018Z,18.93
2019-02-08T11:01:47.944Z,17.07
2019-02-08T11:03:03.991Z,17.70
2019-02-08T11:04:20.553Z,22.57
2019-02-08T11:07:38.525Z,22.43
2019-02-08T11:09:21.267Z,20.40
2019-02-08T11:11:04.011Z,20.00
2019-02-08T11:12:46.755Z,19.40
2019-02-08T11:14:29.495Z,16.87
2019-02-08T11:16:12.243Z,22.83
2019-02-08T11:17:54.978Z,21.13
2019-02-08T11:19:18.790Z,21.97
2019-02-08T11:20:35.290Z,20.33
2019-02-08T11:21:50.606Z,19.67
2019-02-08T11:23:14.119Z,20.13
2019-02-08T11:24:37.721Z,19.10
2019-02-08T11:26:01.525Z,16.50
2019-02-08T11:27:25.030Z,19.27
2019-02-08T11:28:48.616Z,19.73
2019-02-08T11:32:18.606Z,18.80
2019-02-08T11:33:42.195Z,19.17
2019-02-08T11:36:48.473Z,17.27
2019-02-08T11:38:11.982Z,17.13
2019-02-08T11:41:19.737Z,16.47
2019-02-08T11:44:07.622Z,15.77
2019-02-08T11:45:31.158Z,16.83
2019-02-08T11:46:54.738Z,15.87
2019-02-08T11:48:18.430Z,17.70
2019-02-08T11:49:41.998Z,14.47
2019-02-08T11:51:05.597Z,19.57
2019-02-08T11:52:29.187Z,15.17
2019-02-08T11:53:52.770Z,17.13
2019-02-08T11:55:16.358Z,14.40
2019-02-08T11:56:39.870Z,14.07
2019-02-08T11:58:03.453Z,18.37
2019-02-08T11:59:26.971Z,13.63
2019-02-08T12:02:27.427Z,13.23
2019-02-08T12:03:51.022Z,13.97
2019-02-08T12:05:14.591Z,13.47
2019-02-08T12:06:38.181Z,12.57
2019-02-08T12:08:01.858Z,10.83
2019-02-08T12:09:25.451Z,11.03
2019-02-08T12:10:49.034Z,11.10
2019-02-08T12:12:12.541Z,11.53
2019-02-08T12:13:36.058Z,11.07
2019-02-08T12:14:59.573Z,12.47
2019-02-08T12:16:23.191Z,11.23
2019-02-08T12:17:46.685Z,11.47
2019-02-08T12:19:10.206Z,11.07
2019-02-08T12:20:33.725Z,13.13
2019-02-08T12:21:57.237Z,10.53
2019-02-08T12:23:20.762Z,11.50
2019-02-08T12:24:44.262Z,10.90
2019-02-08T12:26:07.842Z,12.40
2019-02-08T12:27:31.430Z,9.07
2019-02-08T12:28:55.010Z,14.43
2019-02-08T12:32:24.326Z,10.73
2019-02-08T12:33:47.914Z,12.03
2019-02-08T12:35:11.423Z,10.77
2019-02-08T12:36:35.312Z,13.63
2019-02-08T12:37:58.825Z,9.20
2019-02-08T12:39:22.341Z,9.13
2019-02-08T12:40:45.871Z,9.23
2019-02-08T12:42:09.398Z,10.93
2019-02-08T12:43:32.918Z,8.03
2019-02-08T12:44:56.430Z,10.43
2019-02-08T12:46:20.005Z,8.13
2019-02-08T12:47:43.514Z,10.67
2019-02-08T12:49:07.080Z,8.83
2019-02-08T12:52:13.270Z,10.97
2019-02-08T12:53:36.794Z,9.83
2019-02-08T12:55:00.287Z,14.37
2019-02-08T12:56:23.797Z,9.87
2019-02-08T12:57:47.387Z,16.77
2019-02-08T12:59:10.925Z,14.20
2019-02-08T13:00:34.502Z,10.93
2019-02-08T13:01:58.087Z,9.73
2019-02-08T13:03:21.599Z,12.60
2019-02-08T13:04:45.105Z,23.77
2019-02-08T13:06:08.734Z,10.93
2019-02-08T13:07:32.237Z,7.87
2019-02-08T13:08:55.741Z,7.60
2019-02-08T13:12:23.585Z,7.10
2019-02-08T13:13:47.102Z,10.10
2019-02-08T13:15:10.967Z,7.90
2019-02-08T13:16:34.489Z,8.80
2019-02-08T13:17:57.987Z,14.77
2019-02-08T13:19:21.514Z,8.13
2019-02-08T13:20:45.037Z,8.53
2019-02-08T13:22:08.630Z,9.40
2019-02-08T13:23:32.147Z,7.90
2019-02-08T13:24:55.646Z,7.80
2019-02-08T13:26:19.152Z,11.33
2019-02-08T13:27:42.658Z,5.97
2019-02-08T13:29:06.255Z,8.60
2019-02-08T13:30:29.829Z,9.07
2019-02-08T13:31:53.329Z,8.57
2019-02-08T13:33:16.923Z,11.83
2019-02-08T13:34:40.445Z,13.00
2019-02-08T13:38:07.457Z,6.67
2019-02-08T13:39:30.983Z,7.27
2019-02-08T13:40:54.482Z,6.83
2019-02-08T13:42:18.018Z,9.30
2019-02-08T13:43:41.542Z,8.27
2019-02-08T13:45:05.655Z,13.03
2019-02-08T13:46:29.158Z,11.23
2019-02-08T13:47:52.941Z,9.20
2019-02-08T13:49:16.475Z,10.17
2019-02-08T13:50:40.082Z,12.53
2019-02-08T13:53:27.885Z,29.87
2019-02-08T13:54:51.411Z,12.87
2019-02-08T13:56:14.991Z,16.47
2019-02-08T13:57:38.587Z,7.90
2019-02-08T13:59:02.182Z,8.40
2019-02-08T14:02:16.222Z,5.40
2019-02-08T14:03:39.717Z,9.13
2019-02-08T14:05:03.318Z,8.23
2019-02-08T14:06:26.832Z,13.17
2019-02-08T14:07:50.346Z,9.43
2019-02-08T14:09:13.918Z,5.13
2019-02-08T14:10:37.527Z,9.10
2019-02-08T14:12:01.030Z,7.07
2019-02-08T14:13:24.567Z,8.90
2019-02-08T14:14:48.072Z,15.17
2019-02-08T14:16:11.577Z,5.07
2019-02-08T14:17:35.170Z,6.33
2019-02-08T14:18:58.678Z,10.60
2019-02-08T14:20:22.025Z,8.80
2019-02-08T14:21:38.169Z,10.87
2019-02-08T14:22:54.766Z,12.27
2019-02-08T14:24:11.501Z,9.73
2019-02-08T14:25:28.223Z,6.90
2019-02-08T14:26:42.863Z,11.53
2019-02-08T14:28:06.473Z,9.80
2019-02-08T14:29:29.974Z,5.37
2019-02-08T14:30:53.486Z,8.10
2019-02-08T14:32:16.986Z,8.83
2019-02-08T14:33:40.568Z,12.10
2019-02-08T14:35:04.319Z,7.80
2019-02-08T14:36:27.835Z,5.27
2019-02-08T14:37:51.417Z,13.53
2019-02-08T14:39:14.938Z,5.10
2019-02-08T14:40:38.475Z,11.50
2019-02-08T14:42:01.982Z,8.93
2019-02-08T14:43:25.491Z,17.77
2019-02-08T14:44:49.003Z,8.53
2019-02-08T14:46:12.595Z,4.73
2019-02-08T14:47:36.082Z,9.17
2019-02-08T14:48:59.671Z,4.23
2019-02-08T14:50:23.582Z,6.77
2019-02-08T14:51:47.091Z,5.10
2019-02-08T14:53:10.662Z,10.03
2019-02-08T14:54:34.298Z,15.67
2019-02-08T14:55:57.834Z,7.20
2019-02-08T14:57:21.344Z,7.37
2019-02-08T14:58:44.845Z,5.57
2019-02-08T15:00:10.290Z,4.17
2019-02-08T15:01:53.043Z,6.90
2019-02-08T15:03:16.542Z,4.47
2019-02-08T15:04:40.059Z,13.83
2019-02-08T15:06:03.886Z,12.00
2019-02-08T15:07:27.385Z,8.33
2019-02-08T15:08:50.890Z,14.27
2019-02-08T15:10:16.026Z,6.60
2019-02-08T15:11:39.551Z,9.97
2019-02-08T15:13:03.532Z,4.80
2019-02-08T15:14:27.034Z,5.87
2019-02-08T15:15:50.526Z,7.27
2019-02-08T15:17:14.058Z,34.80
2019-02-08T15:18:37.570Z,10.50
2019-02-08T15:20:01.159Z,20.60
2019-02-08T15:21:17.686Z,14.33
2019-02-08T15:22:32.242Z,12.57
2019-02-08T15:23:56.507Z,8.40
2019-02-08T15:25:20.970Z,6.53
2019-02-08T15:26:44.642Z,10.50
2019-02-08T15:28:08.219Z,8.43
2019-02-08T15:29:52.428Z,7.50
2019-02-08T15:31:15.938Z,7.43
2019-02-08T15:32:39.450Z,7.03
2019-02-08T15:34:03.027Z,6.80
2019-02-08T15:35:26.946Z,12.13
2019-02-08T15:36:50.544Z,8.83
2019-02-08T15:38:14.033Z,9.57
2019-02-08T15:39:37.538Z,7.03
2019-02-08T15:41:01.113Z,8.50
2019-02-08T15:42:24.625Z,12.50
2019-02-08T15:43:48.149Z,4.30
2019-02-08T15:45:13.146Z,6.13
2019-02-08T15:46:36.651Z,6.47
2019-02-08T15:48:00.246Z,6.40
2019-02-08T15:49:23.822Z,8.33
2019-02-08T15:50:47.407Z,7.13
2019-02-08T15:52:10.982Z,6.70
2019-02-08T15:53:34.571Z,6.07
2019-02-08T15:54:58.077Z,4.77
2019-02-08T15:56:21.599Z,7.77
2019-02-08T15:57:45.127Z,5.27
2019-02-08T15:59:08.618Z,9.63
2019-02-08T16:00:32.206Z,9.07
2019-02-08T16:01:55.783Z,6.77
2019-02-08T16:03:19.372Z,9.33
2019-02-08T16:04:42.870Z,7.43
2019-02-08T16:06:06.550Z,8.63
2019-02-08T16:07:30.113Z,6.77
2019-02-08T16:08:53.621Z,9.67
2019-02-08T16:10:17.454Z,6.10
2019-02-08T16:11:41.061Z,7.07
2019-02-08T16:13:04.638Z,7.83
2019-02-08T16:14:28.226Z,6.60
2019-02-08T16:15:51.815Z,5.90
2019-02-08T16:17:15.392Z,10.47
2019-02-08T16:18:38.904Z,7.20
2019-02-08T16:20:02.479Z,6.80
2019-02-08T16:21:18.387Z,5.33
2019-02-08T16:22:34.274Z,8.53
2019-02-08T16:23:50.195Z,7.13
2019-02-08T16:25:06.775Z,7.73
2019-02-08T16:26:23.358Z,6.20
2019-02-08T16:27:40.188Z,6.20
2019-02-08T16:28:56.590Z,7.43
2019-02-08T16:30:13.158Z,9.40
2019-02-08T16:31:29.815Z,10.37